Time;durP1;ratioP1;P1;durP2;ratioP2;P2;SDS_P1;SDS_P2;PMS_P1;PMS_P2;Temp;Humidity;BMP_temperature;BMP_pressure;BME280_temperature;BME280_humidity;BME280_pressure;Samples;Min_cycle;Max_cycle;Signal;HPM_P1;HPM_P2
2023/07/23 00:01:29;;;;;;;5.03;3.58;;;19.30;77.50;;;;;;5095688;28;20388;-64
2023/07/23 00:03:55;;;;;;;5.15;3.70;;;19.30;77.20;;;;;;5093469;28;20074;-64
2023/07/23 00:06:20;;;;;;;4.68;3.70;;;19.30;77.10;;;;;;5095348;28;20046;-65
2023/07/23 00:08:46;;;;;;;7.55;3.00;;;19.30;77.10;;;;;;5093520;28;20035;-64
2023/07/23 00:11:12;;;;;;;5.35;3.60;;;19.30;77.30;;;;;;5092005;28;20456;-64
2023/07/23 00:13:38;;;;;;;5.60;4.03;;;19.30;77.50;;;;;;5098124;28;20031;-64
2023/07/23 00:16:04;;;;;;;5.00;3.60;;;19.40;77.40;;;;;;5092937;28;20054;-64
2023/07/23 00:18:30;;;;;;;7.82;3.75;;;19.40;78.00;;;;;;5095191;28;20031;-64
2023/07/23 00:20:55;;;;;;;5.38;3.60;;;19.40;76.90;;;;;;5093640;28;20032;-64
2023/07/23 00:23:21;;;;;;;6.53;3.40;;;19.30;77.00;;;;;;5094867;28;20038;-64
2023/07/23 00:25:47;;;;;;;4.10;3.22;;;19.30;77.70;;;;;;5093727;28;20039;-65
2023/07/23 00:28:13;;;;;;;4.00;3.35;;;19.30;78.20;;;;;;5092549;28;20043;-65
2023/07/23 00:30:39;;;;;;;4.80;3.53;;;19.30;77.70;;;;;;5094954;28;20028;-65
2023/07/23 00:33:05;;;;;;;4.32;3.58;;;19.40;77.40;;;;;;5093487;28;20032;-65
2023/07/23 00:35:30;;;;;;;4.97;3.45;;;19.40;77.10;;;;;;5073777;28;20090;-65
2023/07/23 00:37:57;;;;;;;4.53;3.47;;;19.40;77.10;;;;;;5076011;28;20024;-65
2023/07/23 00:40:23;;;;;;;4.10;3.08;;;19.30;77.70;;;;;;5076800;28;20036;-65
2023/07/23 00:42:49;;;;;;;5.18;3.50;;;19.40;77.20;;;;;;5093616;28;20399;-65
2023/07/23 00:45:15;;;;;;;4.78;3.17;;;19.40;77.50;;;;;;5092195;28;20032;-64
2023/07/23 00:47:42;;;;;;;4.60;3.17;;;19.40;77.20;;;;;;5095020;28;20050;-65
2023/07/23 00:50:10;;;;;;;4.80;3.30;;;19.40;77.40;;;;;;5093625;28;20032;-65
2023/07/23 00:52:36;;;;;;;5.80;4.53;;;19.40;77.90;;;;;;5094508;28;20439;-65
2023/07/23 00:55:03;;;;;;;4.95;3.53;;;19.40;77.80;;;;;;5075627;28;20028;-65
2023/07/23 00:57:28;;;;;;;6.60;3.60;;;19.50;77.60;;;;;;5076790;28;20039;-65
2023/07/23 00:59:56;;;;;;;5.15;3.42;;;19.50;77.50;;;;;;5094224;28;20050;-65
2023/07/23 01:02:25;;;;;;;4.55;3.53;;;19.50;77.80;;;;;;5075247;28;20055;-65
2023/07/23 01:04:53;;;;;;;5.30;3.67;;;19.40;77.80;;;;;;5092259;28;20023;-65
2023/07/23 01:07:19;;;;;;;5.68;3.78;;;19.50;78.00;;;;;;5095540;28;20038;-65
2023/07/23 01:09:47;;;;;;;4.85;3.47;;;19.40;78.00;;;;;;5096881;28;20067;-65
2023/07/23 01:12:14;;;;;;;6.88;3.83;;;19.50;78.00;;;;;;5079552;28;20020;-65
2023/07/23 01:14:40;;;;;;;5.10;3.30;;;19.40;78.40;;;;;;5077687;28;20748;-65
2023/07/23 01:17:08;;;;;;;4.63;3.63;;;19.40;78.70;;;;;;5077697;28;20034;-65
2023/07/23 01:19:36;;;;;;;6.28;3.97;;;19.40;79.20;;;;;;5081093;28;20411;-65
2023/07/23 01:22:05;;;;;;;4.63;3.28;;;19.40;79.10;;;;;;5095673;28;20032;-65
2023/07/23 01:24:33;;;;;;;5.07;3.60;;;19.40;79.70;;;;;;5093135;28;20039;-65
2023/07/23 01:26:59;;;;;;;5.13;3.20;;;19.50;80.90;;;;;;5096766;28;20039;-65
2023/07/23 01:29:25;;;;;;;5.32;3.97;;;19.50;81.80;;;;;;5080454;28;20039;-65
2023/07/23 01:31:50;;;;;;;4.35;3.67;;;19.50;84.20;;;;;;5096209;28;20097;-65
2023/07/23 01:34:16;;;;;;;5.18;3.50;;;19.40;84.50;;;;;;5080585;28;20034;-65
2023/07/23 01:36:43;;;;;;;4.70;3.63;;;19.40;84.90;;;;;;5095846;28;20039;-65
2023/07/23 01:39:09;;;;;;;3.83;3.10;;;19.30;85.10;;;;;;5095456;28;20031;-65
2023/07/23 01:41:35;;;;;;;4.90;3.20;;;19.30;85.80;;;;;;5080152;28;20031;-65
2023/07/23 01:44:01;;;;;;;7.40;4.00;;;19.20;86.90;;;;;;5095552;28;20035;-65
2023/07/23 01:46:27;;;;;;;5.07;3.47;;;19.20;87.10;;;;;;5080067;28;20071;-65
2023/07/23 01:48:53;;;;;;;7.20;3.75;;;19.10;87.00;;;;;;5077064;28;20127;-65
2023/07/23 01:51:18;;;;;;;4.65;3.55;;;19.10;86.60;;;;;;5098533;28;20042;-65
2023/07/23 01:53:44;;;;;;;5.50;3.90;;;19.00;86.90;;;;;;5095591;28;20518;-65
2023/07/23 01:56:10;;;;;;;5.22;3.80;;;19.00;88.10;;;;;;5076460;28;20032;-65
2023/07/23 01:58:36;;;;;;;4.97;3.92;;;19.00;89.30;;;;;;5079907;28;20117;-65
2023/07/23 02:01:04;;;;;;;4.72;3.70;;;18.90;90.00;;;;;;5076976;28;20111;-64
2023/07/23 02:03:30;;;;;;;6.00;4.28;;;18.90;90.60;;;;;;5079536;28;20051;-64
2023/07/23 02:05:58;;;;;;;5.15;4.32;;;18.90;90.80;;;;;;5077312;28;20131;-64
2023/07/23 02:08:24;;;;;;;5.78;3.97;;;18.80;91.40;;;;;;5079360;28;20521;-65
2023/07/23 02:10:50;;;;;;;5.78;4.47;;;18.70;91.90;;;;;;5077534;28;20028;-64
2023/07/23 02:13:16;;;;;;;6.78;4.63;;;18.70;92.80;;;;;;5079639;28;20023;-65
2023/07/23 02:15:42;;;;;;;7.00;4.75;;;18.60;93.20;;;;;;5094804;28;20036;-65
2023/07/23 02:18:07;;;;;;;5.85;4.32;;;18.60;93.90;;;;;;5077260;28;20071;-65
2023/07/23 02:20:33;;;;;;;8.57;5.07;;;18.40;94.40;;;;;;5097222;28;20027;-65
2023/07/23 02:22:59;;;;;;;5.28;4.28;;;18.30;94.80;;;;;;5077045;28;20052;-65
2023/07/23 02:25:25;;;;;;;7.40;4.53;;;18.30;95.30;;;;;;5097360;28;20114;-65
2023/07/23 02:27:51;;;;;;;6.85;4.88;;;18.20;95.70;;;;;;5095407;28;20208;-65
2023/07/23 02:30:17;;;;;;;6.38;4.45;;;18.10;96.20;;;;;;5077325;28;20027;-65
2023/07/23 02:32:43;;;;;;;6.70;4.68;;;18.00;97.20;;;;;;5094454;28;20055;-64
2023/07/23 02:35:08;;;;;;;9.30;4.68;;;17.90;98.10;;;;;;5095569;28;20020;-64
2023/07/23 02:37:34;;;;;;;8.52;5.95;;;17.80;98.60;;;;;;5097056;28;20127;-64
2023/07/23 02:40:00;;;;;;;6.60;4.60;;;17.80;99.10;;;;;;5077157;28;20064;-64
2023/07/23 02:42:26;;;;;;;8.38;5.22;;;17.70;99.40;;;;;;5078196;28;20042;-64
2023/07/23 02:44:51;;;;;;;5.50;4.43;;;17.60;99.80;;;;;;5076869;28;20071;-64
2023/07/23 02:47:17;;;;;;;5.90;4.57;;;17.60;99.90;;;;;;5078786;28;20035;-64
2023/07/23 02:49:43;;;;;;;6.65;4.45;;;17.50;99.90;;;;;;5075368;28;20039;-64
2023/07/23 02:52:09;;;;;;;6.88;4.47;;;17.50;99.90;;;;;;5076414;28;20563;-64
2023/07/23 02:54:34;;;;;;;6.10;4.60;;;17.40;99.90;;;;;;5078189;28;20034;-64
2023/07/23 02:57:00;;;;;;;6.38;4.78;;;17.40;99.90;;;;;;5095171;28;20032;-64
2023/07/23 02:59:26;;;;;;;6.45;4.47;;;17.40;99.90;;;;;;5096873;28;20063;-64
2023/07/23 03:01:52;;;;;;;6.18;4.53;;;17.40;99.90;;;;;;5076132;28;20039;-64
2023/07/23 03:04:17;;;;;;;7.45;5.22;;;17.40;99.90;;;;;;5078166;28;20031;-64
2023/07/23 03:06:43;;;;;;;7.85;5.35;;;17.30;99.90;;;;;;5075264;28;20032;-64
2023/07/23 03:09:09;;;;;;;6.95;4.97;;;17.40;99.90;;;;;;5090657;28;20028;-64
2023/07/23 03:11:35;;;;;;;7.85;5.25;;;17.40;99.90;;;;;;5096909;28;20556;-65
2023/07/23 03:14:00;;;;;;;6.45;5.03;;;17.40;99.90;;;;;;5089963;28;20512;-64
2023/07/23 03:16:26;;;;;;;7.15;5.03;;;17.40;99.90;;;;;;5096736;28;20035;-64
2023/07/23 03:18:52;;;;;;;7.35;5.90;;;17.40;99.90;;;;;;5075944;28;20046;-64
2023/07/23 03:21:17;;;;;;;6.63;5.13;;;17.30;99.90;;;;;;5096558;28;20100;-64
2023/07/23 03:23:43;;;;;;;5.75;4.82;;;17.30;99.90;;;;;;5075487;28;20160;-64
2023/07/23 03:26:09;;;;;;;6.20;4.60;;;17.30;99.90;;;;;;5092406;28;20031;-64
2023/07/23 03:28:35;;;;;;;7.03;4.88;;;17.30;99.90;;;;;;5096548;28;20035;-64
2023/07/23 03:31:00;;;;;;;7.05;4.95;;;17.30;99.90;;;;;;5093329;28;20055;-64
2023/07/23 03:33:27;;;;;;;6.20;5.05;;;17.30;99.90;;;;;;5096465;28;20028;-64
2023/07/23 03:35:52;;;;;;;7.45;5.50;;;17.30;99.90;;;;;;5093733;28;20093;-64
2023/07/23 03:38:18;;;;;;;6.57;4.90;;;17.30;99.90;;;;;;5096292;28;20491;-64
2023/07/23 03:40:44;;;;;;;6.60;4.82;;;17.30;99.90;;;;;;5074528;28;20051;-64
2023/07/23 03:43:10;;;;;;;5.85;4.72;;;17.30;99.90;;;;;;5075139;28;20024;-64
2023/07/23 03:45:35;;;;;;;8.00;5.18;;;17.30;99.90;;;;;;5077734;28;20063;-64
2023/07/23 03:48:01;;;;;;;6.53;5.07;;;17.30;99.90;;;;;;5075462;28;20055;-64
2023/07/23 03:50:28;;;;;;;7.80;5.40;;;17.20;99.90;;;;;;5096896;28;20115;-64
2023/07/23 03:52:54;;;;;;;10.00;5.50;;;17.20;99.90;;;;;;5092964;28;20839;-64
2023/07/23 03:55:20;;;;;;;8.43;5.75;;;17.20;99.90;;;;;;5077660;28;20557;-64
2023/07/23 03:57:46;;;;;;;6.13;5.18;;;17.20;99.90;;;;;;5075259;28;20491;-64
2023/07/23 04:00:12;;;;;;;7.22;5.20;;;17.20;99.90;;;;;;5093011;28;20680;-64
2023/07/23 04:02:38;;;;;;;8.82;5.72;;;17.20;99.90;;;;;;5095620;28;20404;-64
2023/07/23 04:05:04;;;;;;;6.35;4.75;;;17.20;99.90;;;;;;5093195;28;20036;-64
2023/07/23 04:07:30;;;;;;;6.32;4.75;;;17.20;99.90;;;;;;5077673;28;20031;-64
2023/07/23 04:09:55;;;;;;;6.65;5.18;;;17.20;99.90;;;;;;5075112;28;20071;-65
2023/07/23 04:12:22;;;;;;;7.85;5.60;;;17.20;99.90;;;;;;5095785;28;20429;-65
2023/07/23 04:14:51;;;;;;;5.70;4.50;;;17.20;99.90;;;;;;5075147;28;20024;-64
2023/07/23 04:17:17;;;;;;;9.00;5.07;;;17.20;99.90;;;;;;5095126;28;20077;-64
2023/07/23 04:19:43;;;;;;;9.25;5.50;;;17.20;99.90;;;;;;5073921;28;20564;-63
2023/07/23 04:22:09;;;;;;;6.40;4.90;;;17.20;99.90;;;;;;5075392;28;20046;-65
2023/07/23 04:24:34;;;;;;;7.82;5.88;;;17.30;99.90;;;;;;5076716;28;20542;-64
2023/07/23 04:27:00;;;;;;;7.63;5.47;;;17.30;99.90;;;;;;5093830;28;20523;-64
2023/07/23 04:29:26;;;;;;;5.63;4.80;;;17.30;99.90;;;;;;5072678;28;20040;-64
2023/07/23 04:31:51;;;;;;;6.40;5.00;;;17.30;99.90;;;;;;5073806;28;20043;-65
2023/07/23 04:34:17;;;;;;;6.03;5.38;;;17.30;99.90;;;;;;5076283;28;20035;-64
2023/07/23 04:36:43;;;;;;;7.30;5.18;;;17.30;99.90;;;;;;5092557;28;20062;-65
2023/07/23 04:39:09;;;;;;;7.95;5.13;;;17.30;99.90;;;;;;5093727;28;20139;-64
2023/07/23 04:41:35;;;;;;;6.35;4.65;;;17.40;99.90;;;;;;5078044;28;20054;-64
2023/07/23 04:44:01;;;;;;;7.97;5.07;;;17.40;99.90;;;;;;5097509;28;20028;-64
2023/07/23 04:46:30;;;;;;;8.88;5.50;;;17.40;99.90;;;;;;5099081;28;20081;-64
2023/07/23 04:48:55;;;;;;;7.20;5.63;;;17.40;99.90;;;;;;5097652;28;20040;-64
2023/07/23 04:51:21;;;;;;;8.77;5.53;;;17.50;99.90;;;;;;5098538;28;20020;-65
2023/07/23 04:53:47;;;;;;;6.22;5.05;;;17.50;99.90;;;;;;5096329;28;20024;-65
2023/07/23 04:56:12;;;;;;;5.85;5.00;;;17.60;99.90;;;;;;5097859;28;20215;-65
2023/07/23 04:58:38;;;;;;;7.82;5.28;;;17.60;99.90;;;;;;5098526;28;20514;-64
2023/07/23 05:01:10;;;;;;;7.18;5.18;;;17.60;99.90;;;;;;5097639;28;20043;-65
2023/07/23 05:03:36;;;;;;;7.13;5.50;;;17.60;99.90;;;;;;5095777;28;20032;-65
2023/07/23 05:06:04;;;;;;;6.63;4.95;;;17.60;99.90;;;;;;5096934;28;20388;-65
2023/07/23 05:08:30;;;;;;;9.05;5.10;;;17.70;99.90;;;;;;5097151;28;20028;-64
2023/07/23 05:11:04;;;;;;;7.05;5.05;;;17.70;99.90;;;;;;5095861;28;20036;-64
2023/07/23 05:13:31;;;;;;;7.65;6.38;;;17.80;99.90;;;;;;5096769;28;20042;-64
2023/07/23 05:16:02;;;;;;;8.98;5.60;;;17.80;99.90;;;;;;5095301;28;20377;-64
2023/07/23 05:18:28;;;;;;;7.13;5.25;;;17.80;99.90;;;;;;5093899;28;20028;-64
2023/07/23 05:20:54;;;;;;;7.05;4.78;;;17.80;99.90;;;;;;5096556;28;20832;-64
2023/07/23 05:23:21;;;;;;;6.22;4.65;;;17.80;99.90;;;;;;5099085;28;20023;-64
2023/07/23 05:25:47;;;;;;;8.90;5.47;;;17.90;99.90;;;;;;5096495;28;20078;-64
2023/07/23 05:28:13;;;;;;;9.45;5.82;;;17.90;99.90;;;;;;5098898;28;20059;-64
2023/07/23 05:30:40;;;;;;;7.68;5.55;;;18.00;99.90;;;;;;5077276;28;20396;-64
2023/07/23 05:33:06;;;;;;;7.60;5.20;;;18.00;99.90;;;;;;5096459;28;20031;-66
2023/07/23 05:35:32;;;;;;;6.63;5.13;;;18.10;99.90;;;;;;5098651;28;20031;-64
2023/07/23 05:37:57;;;;;;;7.85;5.40;;;18.10;99.90;;;;;;5096476;28;20028;-64
2023/07/23 05:40:23;;;;;;;8.23;5.70;;;18.20;99.90;;;;;;5098241;28;20032;-64
2023/07/23 05:42:49;;;;;;;6.97;5.38;;;18.30;99.90;;;;;;5096099;28;20146;-64
2023/07/23 05:45:14;;;;;;;6.45;5.03;;;18.30;99.90;;;;;;5098290;28;20036;-65
2023/07/23 05:47:40;;;;;;;10.88;5.28;;;18.40;99.90;;;;;;5095309;28;20027;-64
2023/07/23 05:50:06;;;;;;;7.38;5.55;;;18.40;99.90;;;;;;5094791;28;20028;-64
2023/07/23 05:52:32;;;;;;;7.07;5.25;;;18.60;99.90;;;;;;5097558;28;20028;-64
2023/07/23 05:54:58;;;;;;;7.00;5.38;;;18.70;99.90;;;;;;5095869;28;20530;-65
2023/07/23 05:57:24;;;;;;;5.75;4.90;;;18.70;99.90;;;;;;5098517;28;20514;-65
2023/07/23 05:59:50;;;;;;;7.35;5.28;;;18.80;99.90;;;;;;5096131;28;20024;-64
2023/07/23 06:02:15;;;;;;;7.05;5.22;;;18.90;99.90;;;;;;5097770;28;20800;-65
2023/07/23 06:04:41;;;;;;;9.32;5.18;;;18.90;99.90;;;;;;5094975;28;20035;-64
2023/07/23 06:07:07;;;;;;;8.98;5.38;;;19.00;99.90;;;;;;5095817;28;20040;-65
2023/07/23 06:09:33;;;;;;;7.93;4.97;;;19.00;99.90;;;;;;5097900;28;20092;-65
2023/07/23 06:11:59;;;;;;;7.35;5.45;;;19.00;99.90;;;;;;5095412;28;20024;-65
2023/07/23 06:14:24;;;;;;;7.03;5.15;;;19.10;99.90;;;;;;5097946;28;20093;-64
2023/07/23 06:16:50;;;;;;;10.15;6.35;;;19.10;99.90;;;;;;5095478;28;20020;-64
2023/07/23 06:19:16;;;;;;;8.38;5.55;;;19.20;99.90;;;;;;5098070;28;20039;-65
2023/07/23 06:21:42;;;;;;;7.70;5.68;;;19.00;99.90;;;;;;5094691;28;20036;-65
2023/07/23 06:24:08;;;;;;;7.30;5.63;;;19.00;99.90;;;;;;5095190;28;20043;-65
2023/07/23 06:26:34;;;;;;;6.97;5.10;;;19.00;99.90;;;;;;5097599;28;20031;-65
2023/07/23 06:28:59;;;;;;;7.65;5.75;;;19.00;99.90;;;;;;5092661;28;20036;-65
2023/07/23 06:31:25;;;;;;;7.80;5.25;;;19.10;99.90;;;;;;5097660;28;20031;-64
2023/07/23 06:33:51;;;;;;;6.35;5.20;;;19.00;99.90;;;;;;5095058;28;20026;-65
2023/07/23 06:36:17;;;;;;;6.38;5.18;;;19.10;99.90;;;;;;5097599;28;20028;-65
2023/07/23 06:38:43;;;;;;;8.00;5.20;;;19.20;99.90;;;;;;5094991;28;20851;-65
2023/07/23 06:41:08;;;;;;;6.85;4.95;;;19.30;99.90;;;;;;5094570;28;20035;-65
2023/07/23 06:43:34;;;;;;;8.60;5.22;;;19.40;99.90;;;;;;5097414;28;20031;-64
2023/07/23 06:46:00;;;;;;;7.05;4.90;;;19.70;99.90;;;;;;5094735;28;20493;-65
2023/07/23 06:48:28;;;;;;;7.55;4.63;;;19.80;99.60;;;;;;5098110;28;20039;-64
2023/07/23 06:50:55;;;;;;;7.38;4.82;;;19.80;99.10;;;;;;5096132;28;20829;-65
2023/07/23 06:53:21;;;;;;;8.02;4.82;;;19.80;99.20;;;;;;5096021;28;20057;-65
2023/07/23 06:55:57;;;;;;;6.93;4.72;;;19.80;98.50;;;;;;5094982;28;20036;-64
2023/07/23 06:58:22;;;;;;;7.30;5.30;;;19.80;98.80;;;;;;5093823;28;20028;-64
2023/07/23 07:00:48;;;;;;;7.53;4.65;;;19.90;98.70;;;;;;5095454;28;20045;-64
2023/07/23 07:03:14;;;;;;;6.78;5.32;;;20.10;98.70;;;;;;5096248;28;20062;-64
2023/07/23 07:05:40;;;;;;;7.00;4.63;;;20.10;98.10;;;;;;5095282;28;20145;-64
2023/07/23 07:08:05;;;;;;;7.32;4.75;;;20.10;98.00;;;;;;5095978;28;20044;-64
2023/07/23 07:10:31;;;;;;;6.50;5.38;;;20.20;98.00;;;;;;5094985;28;20023;-65
2023/07/23 07:12:57;;;;;;;7.75;5.18;;;20.20;97.70;;;;;;5095713;28;20037;-65
2023/07/23 07:15:23;;;;;;;8.88;5.35;;;20.30;97.50;;;;;;5093416;28;20031;-65
2023/07/23 07:17:48;;;;;;;6.90;5.05;;;20.30;97.00;;;;;;5095040;28;20466;-65
2023/07/23 07:20:14;;;;;;;7.50;5.07;;;20.40;97.00;;;;;;5091319;28;20089;-65
2023/07/23 07:22:40;;;;;;;9.40;6.35;;;20.40;97.20;;;;;;5076366;28;20061;-65
2023/07/23 07:25:06;;;;;;;6.03;4.70;;;20.50;97.10;;;;;;5095650;28;20039;-66
2023/07/23 07:27:32;;;;;;;5.57;4.70;;;20.60;97.30;;;;;;5078893;28;20488;-65
2023/07/23 07:29:57;;;;;;;7.18;5.00;;;20.80;96.80;;;;;;5096014;28;20069;-64
2023/07/23 07:32:23;;;;;;;9.10;4.72;;;20.90;96.00;;;;;;5094461;28;20031;-65
2023/07/23 07:34:49;;;;;;;8.68;4.70;;;20.90;96.10;;;;;;5092799;28;20035;-65
2023/07/23 07:37:14;;;;;;;5.20;4.22;;;20.90;95.30;;;;;;5076805;28;20032;-65
2023/07/23 07:39:41;;;;;;;6.95;4.65;;;20.80;95.90;;;;;;5094811;28;20038;-65
2023/07/23 07:42:07;;;;;;;5.53;4.35;;;20.90;96.30;;;;;;5091880;28;20490;-65
2023/07/23 07:44:33;;;;;;;6.10;4.43;;;20.90;95.60;;;;;;5094881;28;20692;-65
2023/07/23 07:46:58;;;;;;;4.82;3.80;;;20.80;95.10;;;;;;5088874;28;20042;-65
2023/07/23 07:49:24;;;;;;;5.53;4.03;;;20.80;95.20;;;;;;5093842;28;20034;-65
2023/07/23 07:51:50;;;;;;;6.68;3.72;;;20.80;94.60;;;;;;5092839;28;20023;-65
2023/07/23 07:54:16;;;;;;;4.22;3.75;;;20.80;94.50;;;;;;5091017;28;20644;-64
2023/07/23 07:56:43;;;;;;;5.72;4.20;;;20.90;94.90;;;;;;5093370;28;20511;-64
2023/07/23 07:59:10;;;;;;;5.75;4.70;;;20.90;94.50;;;;;;5095154;28;20115;-61
2023/07/23 08:01:36;;;;;;;12.50;7.50;;;20.90;94.60;;;;;;5094248;28;20078;-62
2023/07/23 08:04:03;;;;;;;11.40;8.18;;;21.00;94.80;;;;;;5076118;28;20135;-62
2023/07/23 08:06:30;;;;;;;15.85;10.02;;;21.20;94.30;;;;;;5093873;28;20038;-62
2023/07/23 08:08:58;;;;;;;24.00;13.98;;;21.50;93.90;;;;;;5092504;28;20052;-61
2023/07/23 08:11:25;;;;;;;20.73;13.20;;;21.60;93.40;;;;;;5091490;28;20031;-61
2023/07/23 08:13:51;;;;;;;17.25;10.80;;;21.80;93.00;;;;;;5093045;28;20705;-61
2023/07/23 08:16:17;;;;;;;5.70;4.30;;;22.00;92.70;;;;;;5095756;28;20036;-62
2023/07/23 08:18:44;;;;;;;8.65;6.30;;;22.20;92.00;;;;;;5092700;28;20032;-61
2023/07/23 08:21:11;;;;;;;6.13;3.88;;;22.10;92.00;;;;;;5095958;28;20023;-61
2023/07/23 08:23:37;;;;;;;5.88;4.60;;;22.10;91.50;;;;;;5092593;28;20059;-61
2023/07/23 08:26:05;;;;;;;10.18;5.13;;;22.10;91.90;;;;;;5089336;28;20042;-61
2023/07/23 08:28:37;;;;;;;5.18;4.35;;;22.10;91.40;;;;;;5088644;28;20083;-61
2023/07/23 08:31:03;;;;;;;6.63;3.95;;;22.10;91.20;;;;;;5089890;28;20497;-62
2023/07/23 08:33:30;;;;;;;5.18;3.80;;;22.20;90.50;;;;;;5095116;28;20126;-61
2023/07/23 08:35:57;;;;;;;5.75;3.95;;;22.20;90.90;;;;;;5093149;28;20515;-61
2023/07/23 08:38:24;;;;;;;5.95;3.80;;;22.20;91.00;;;;;;5093925;28;20033;-61
2023/07/23 08:40:58;;;;;;;5.03;3.60;;;22.30;90.60;;;;;;5093400;28;20083;-61
2023/07/23 08:43:45;;;;;;;8.20;4.00;;;22.30;90.10;;;;;;5093349;28;20589;-61
2023/07/23 08:46:16;;;;;;;4.25;3.17;;;22.30;90.50;;;;;;5090592;28;20610;-62
2023/07/23 08:48:54;;;;;;;10.15;5.03;;;22.40;90.20;;;;;;5093450;28;20065;-62
2023/07/23 08:51:20;;;;;;;4.68;3.72;;;22.60;89.60;;;;;;5095632;28;20035;-62
2023/07/23 08:53:48;;;;;;;18.33;9.68;;;22.70;89.00;;;;;;5092117;28;20036;-62
2023/07/23 08:56:15;;;;;;;10.85;5.93;;;22.70;87.50;;;;;;5095941;28;20032;-61
2023/07/23 08:58:43;;;;;;;12.35;6.40;;;22.60;86.20;;;;;;5084489;28;20036;-61
2023/07/23 09:01:10;;;;;;;11.80;7.15;;;22.60;86.20;;;;;;5095816;28;20035;-61
2023/07/23 09:03:36;;;;;;;9.07;4.45;;;22.60;86.20;;;;;;5091600;28;20737;-61
2023/07/23 09:06:03;;;;;;;6.10;4.18;;;22.80;85.70;;;;;;5092459;28;20077;-61
2023/07/23 09:08:29;;;;;;;8.85;4.38;;;22.80;84.80;;;;;;5091114;28;20028;-61
2023/07/23 09:10:55;;;;;;;6.75;4.30;;;22.90;85.10;;;;;;5092349;28;20637;-61
2023/07/23 09:13:20;;;;;;;4.63;3.42;;;22.90;84.30;;;;;;5095191;28;20097;-61
2023/07/23 09:15:54;;;;;;;4.63;3.38;;;22.90;84.70;;;;;;5091258;28;20032;-61
2023/07/23 09:18:20;;;;;;;8.32;3.70;;;23.00;82.40;;;;;;5093880;28;20474;-61
2023/07/23 09:20:49;;;;;;;7.15;3.63;;;23.00;83.50;;;;;;5091703;28;20050;-61
2023/07/23 09:23:15;;;;;;;4.68;3.60;;;23.00;82.80;;;;;;5089771;28;20028;-61
2023/07/23 09:25:44;;;;;;;6.13;3.35;;;23.10;82.70;;;;;;5093118;28;20032;-61
2023/07/23 09:28:22;;;;;;;5.47;3.65;;;23.10;82.00;;;;;;5094534;28;20073;-60
2023/07/23 09:30:51;;;;;;;5.25;2.88;;;23.10;81.40;;;;;;5093949;28;20047;-61
2023/07/23 09:33:17;;;;;;;4.75;3.47;;;23.10;81.10;;;;;;5098144;28;20366;-61
2023/07/23 09:35:43;;;;;;;6.15;3.15;;;23.10;81.60;;;;;;5095667;28;20088;-61
2023/07/23 09:38:14;;;;;;;4.53;3.55;;;23.10;80.60;;;;;;5095573;28;20016;-61
2023/07/23 09:40:41;;;;;;;4.53;3.50;;;23.20;81.30;;;;;;5099711;28;20073;-61
2023/07/23 09:43:08;;;;;;;4.22;3.17;;;23.30;81.20;;;;;;5099995;28;20058;-61
2023/07/23 09:45:39;;;;;;;5.22;3.03;;;23.50;80.20;;;;;;5100732;28;20028;-61
2023/07/23 09:48:06;;;;;;;3.63;3.00;;;23.60;79.70;;;;;;5096391;28;20031;-60
2023/07/23 09:50:32;;;;;;;5.28;3.00;;;23.60;80.30;;;;;;5096460;28;20503;-61
2023/07/23 09:52:58;;;;;;;5.90;2.97;;;23.60;78.90;;;;;;5094025;28;20068;-61
2023/07/23 09:55:24;;;;;;;3.90;3.10;;;23.50;78.90;;;;;;5094205;28;20064;-61
2023/07/23 09:57:51;;;;;;;4.82;3.10;;;23.60;77.40;;;;;;5096414;28;20035;-61
2023/07/23 10:00:18;;;;;;;5.75;3.20;;;23.70;76.20;;;;;;5097583;28;20613;-61
2023/07/23 10:02:47;;;;;;;5.57;3.05;;;23.50;76.00;;;;;;5095063;28;20435;-61
2023/07/23 10:05:17;;;;;;;5.05;3.40;;;23.50;76.90;;;;;;5098164;28;20731;-61
2023/07/23 10:07:45;;;;;;;4.72;3.47;;;23.50;76.20;;;;;;5094753;28;20533;-61
2023/07/23 10:10:13;;;;;;;6.38;3.47;;;23.60;76.90;;;;;;5093747;28;20039;-61
2023/07/23 10:12:39;;;;;;;4.07;3.30;;;23.60;76.10;;;;;;5094872;28;20032;-61
2023/07/23 10:15:06;;;;;;;5.68;3.70;;;23.60;76.70;;;;;;5095257;28;20038;-61
2023/07/23 10:17:33;;;;;;;4.85;3.97;;;23.60;77.10;;;;;;5097846;28;20040;-61
2023/07/23 10:19:59;;;;;;;4.93;3.40;;;23.70;76.80;;;;;;5095265;28;20063;-61
2023/07/23 10:22:33;;;;;;;4.03;3.08;;;23.80;76.70;;;;;;5097393;28;20123;-62
2023/07/23 10:24:58;;;;;;;5.47;3.40;;;23.90;75.80;;;;;;5096350;28;20027;-61
2023/07/23 10:27:24;;;;;;;5.28;3.05;;;24.10;75.60;;;;;;5096604;28;20811;-60
2023/07/23 10:30:14;;;;;;;7.10;3.90;;;24.10;75.60;;;;;;5092616;28;20040;-62
2023/07/23 10:32:40;;;;;;;6.93;3.28;;;24.10;75.60;;;;;;5091665;28;20031;-61
2023/07/23 10:35:06;;;;;;;6.85;3.03;;;24.20;74.00;;;;;;5095523;28;20036;-62
2023/07/23 10:37:32;;;;;;;4.97;3.10;;;24.20;74.20;;;;;;5095041;28;20181;-61
2023/07/23 10:40:00;;;;;;;6.63;3.15;;;24.30;74.80;;;;;;5094379;28;20039;-61
2023/07/23 10:42:35;;;;;;;4.78;3.33;;;24.40;74.40;;;;;;5096396;28;20092;-61
2023/07/23 10:45:22;;;;;;;5.13;3.33;;;24.50;74.00;;;;;;5096887;28;20028;-62
2023/07/23 10:47:53;;;;;;;5.68;2.78;;;24.50;74.60;;;;;;5092037;28;20032;-61
2023/07/23 10:50:20;;;;;;;3.33;2.95;;;24.50;74.00;;;;;;5096215;28;20036;-62
2023/07/23 10:52:49;;;;;;;4.13;2.88;;;24.60;73.40;;;;;;5095173;28;20425;-62
2023/07/23 10:55:34;;;;;;;3.90;3.10;;;24.80;73.90;;;;;;5094294;28;20062;-61
2023/07/23 10:58:11;;;;;;;3.50;2.55;;;24.90;72.30;;;;;;5094836;28;20031;-62
2023/07/23 11:00:44;;;;;;;5.10;2.88;;;24.80;70.50;;;;;;5093962;28;20040;-62
2023/07/23 11:03:18;;;;;;;5.30;2.95;;;24.90;69.40;;;;;;5092858;28;20469;-62
2023/07/23 11:05:45;;;;;;;3.67;2.78;;;25.10;70.10;;;;;;5093936;28;20028;-61
2023/07/23 11:08:15;;;;;;;5.68;3.00;;;25.30;70.40;;;;;;5089902;28;20048;-62
2023/07/23 11:11:01;;;;;;;6.78;2.83;;;25.40;69.70;;;;;;5095641;28;20028;-61
2023/07/23 11:13:31;;;;;;;4.07;2.42;;;25.40;67.80;;;;;;5091960;28;20031;-61
2023/07/23 11:15:56;;;;;;;4.90;2.55;;;25.40;68.00;;;;;;5089818;28;20440;-62
2023/07/23 11:18:23;;;;;;;4.40;2.55;;;25.40;68.00;;;;;;5095830;28;20077;-62
2023/07/23 11:20:50;;;;;;;5.05;2.78;;;25.50;67.80;;;;;;5094657;28;20065;-61
2023/07/23 11:23:20;;;;;;;6.68;2.53;;;25.60;67.20;;;;;;5074730;28;20526;-61
2023/07/23 11:25:47;;;;;;;6.25;2.67;;;25.60;66.10;;;;;;5095241;28;20673;-62
2023/07/23 11:28:16;;;;;;;4.15;2.83;;;25.50;63.90;;;;;;5095333;28;20446;-60
2023/07/23 11:30:42;;;;;;;3.10;2.40;;;25.50;64.90;;;;;;5089281;28;20556;-61
2023/07/23 11:33:08;;;;;;;3.95;2.53;;;25.50;66.40;;;;;;5093643;28;20028;-61
2023/07/23 11:35:34;;;;;;;4.13;2.85;;;25.50;65.90;;;;;;5092701;28;20081;-61
2023/07/23 11:38:04;;;;;;;3.25;2.30;;;25.60;64.90;;;;;;5094811;28;20027;-61
2023/07/23 11:40:30;;;;;;;8.05;2.72;;;25.60;63.70;;;;;;5093470;28;20054;-61
2023/07/23 11:42:56;;;;;;;3.00;2.47;;;25.60;63.50;;;;;;5092816;28;20772;-62
2023/07/23 11:45:22;;;;;;;4.03;2.60;;;25.70;63.60;;;;;;5096317;28;20122;-61
2023/07/23 11:47:48;;;;;;;3.28;2.38;;;25.70;63.70;;;;;;5093446;28;20363;-61
2023/07/23 11:50:18;;;;;;;4.38;2.30;;;25.80;62.90;;;;;;5095669;28;20031;-61
2023/07/23 11:52:46;;;;;;;4.38;2.80;;;25.70;62.60;;;;;;5092614;28;20028;-61
2023/07/23 11:55:19;;;;;;;5.40;2.28;;;25.70;61.90;;;;;;5091947;28;20465;-61
2023/07/23 11:57:50;;;;;;;3.85;2.50;;;25.70;60.00;;;;;;5093576;28;20492;-61
2023/07/23 12:00:26;;;;;;;7.00;2.70;;;25.80;60.40;;;;;;5092705;28;20459;-61
2023/07/23 12:02:53;;;;;;;3.95;2.50;;;25.80;60.60;;;;;;5093007;28;20036;-61
2023/07/23 12:05:19;;;;;;;2.28;2.08;;;25.90;60.00;;;;;;5096220;28;20061;-61
2023/07/23 12:07:45;;;;;;;4.75;2.38;;;26.00;59.00;;;;;;5092340;28;20044;-61
2023/07/23 12:10:15;;;;;;;3.08;2.30;;;26.10;59.60;;;;;;5095430;28;20032;-61
2023/07/23 12:12:48;;;;;;;4.00;2.17;;;26.40;58.60;;;;;;5095260;28;20423;-61
2023/07/23 12:15:16;;;;;;;4.68;2.40;;;26.50;58.00;;;;;;5093475;28;20042;-62
2023/07/23 12:17:43;;;;;;;3.25;1.90;;;26.50;58.00;;;;;;5092655;28;20093;-61
2023/07/23 12:20:14;;;;;;;5.22;1.90;;;26.40;57.40;;;;;;5093761;28;20118;-61
2023/07/23 12:23:00;;;;;;;4.25;1.98;;;26.30;57.20;;;;;;5094366;28;20514;-62
2023/07/23 12:25:26;;;;;;;4.93;2.33;;;26.40;57.70;;;;;;5091014;28;20039;-61
2023/07/23 12:27:52;;;;;;;4.05;1.90;;;26.40;58.40;;;;;;5093058;28;20491;-61
2023/07/23 12:30:18;;;;;;;3.35;1.73;;;26.20;55.40;;;;;;5095268;28;20042;-61
2023/07/23 12:32:47;;;;;;;4.00;2.10;;;26.10;54.80;;;;;;5092849;28;20028;-61
2023/07/23 12:35:14;;;;;;;5.10;2.13;;;26.10;54.90;;;;;;5092533;28;20032;-61
2023/07/23 12:37:40;;;;;;;3.40;2.40;;;26.00;54.00;;;;;;5094600;28;20062;-61
2023/07/23 12:40:08;;;;;;;3.60;2.33;;;26.00;52.50;;;;;;5093329;28;20051;-62
2023/07/23 12:42:35;;;;;;;4.93;2.65;;;26.10;53.50;;;;;;5094810;28;20061;-61
2023/07/23 12:45:03;;;;;;;5.38;2.38;;;26.20;54.10;;;;;;5090039;28;20524;-61